Time;durP1;ratioP1;P1;durP2;ratioP2;P2;SDS_P1;SDS_P2;PMS_P1;PMS_P2;Temp;Humidity;BMP_temperature;BMP_pressure;BME280_temperature;BME280_humidity;BME280_pressure;Samples;Min_cycle;Max_cycle;Signal;HPM_P1;HPM_P2
2023/10/30 00:01:20;;;;;;;5.15;1.65;;;;;;;;;;6278357;22;20011;-63
2023/10/30 00:03:46;;;;;;;2.22;1.40;;;;;;;;;;6278605;22;20000;-64
2023/10/30 00:06:11;;;;;;;3.92;1.90;;;;;;;;;;6278271;22;20013;-63
2023/10/30 00:08:37;;;;;;;5.10;1.70;;;;;;;;;;6278286;22;20014;-64
2023/10/30 00:11:02;;;;;;;2.17;1.25;;;;;;;;;;6278566;22;20006;-63
2023/10/30 00:13:28;;;;;;;2.70;1.40;;;;;;;;;;6280046;22;20027;-64
2023/10/30 00:15:55;;;;;;;2.58;1.45;;;;;;;;;;6278917;22;20014;-63
2023/10/30 00:18:20;;;;;;;2.10;1.38;;;;;;;;;;6278227;22;20429;-63
2023/10/30 00:20:46;;;;;;;2.22;1.42;;;;;;;;;;6278329;22;19995;-64
2023/10/30 00:23:12;;;;;;;2.75;1.30;;;;;;;;;;6277450;22;20011;-63
2023/10/30 00:25:38;;;;;;;2.80;1.42;;;;;;;;;;6277591;22;19996;-63
2023/10/30 00:28:03;;;;;;;3.25;1.23;;;;;;;;;;6277248;22;20454;-68
2023/10/30 00:30:29;;;;;;;4.25;1.33;;;;;;;;;;6277200;22;20075;-69
2023/10/30 00:32:55;;;;;;;2.90;1.30;;;;;;;;;;6276932;22;20057;-74
2023/10/30 00:35:21;;;;;;;2.00;1.30;;;;;;;;;;6277533;22;19996;-71
2023/10/30 00:37:46;;;;;;;2.53;1.52;;;;;;;;;;6277234;22;20074;-70
2023/10/30 00:40:12;;;;;;;2.17;1.50;;;;;;;;;;6277592;22;20008;-72
2023/10/30 00:42:38;;;;;;;2.15;1.45;;;;;;;;;;6277964;22;20333;-69
2023/10/30 00:45:04;;;;;;;4.57;1.60;;;;;;;;;;6278131;22;20004;-69
2023/10/30 00:47:30;;;;;;;3.95;1.63;;;;;;;;;;6275426;22;20302;-70
2023/10/30 00:49:56;;;;;;;2.05;1.50;;;;;;;;;;6275052;22;20004;-70
2023/10/30 00:52:22;;;;;;;3.70;1.63;;;;;;;;;;6274486;22;20010;-70
2023/10/30 00:54:47;;;;;;;2.90;1.35;;;;;;;;;;6275039;22;20080;-70
2023/10/30 00:57:13;;;;;;;3.85;1.50;;;;;;;;;;6275631;22;20000;-69
2023/10/30 00:59:38;;;;;;;1.75;1.30;;;;;;;;;;6276318;22;20027;-69
2023/10/30 01:02:04;;;;;;;2.63;1.67;;;;;;;;;;6274951;22;20070;-69
2023/10/30 01:04:30;;;;;;;2.28;1.55;;;;;;;;;;6276781;22;20482;-69
2023/10/30 01:06:55;;;;;;;2.88;1.65;;;;;;;;;;6275751;22;20007;-70
2023/10/30 01:09:21;;;;;;;2.35;1.65;;;;;;;;;;6276238;22;20007;-69
2023/10/30 01:11:46;;;;;;;2.72;1.48;;;;;;;;;;6276147;22;20064;-73
2023/10/30 01:14:12;;;;;;;2.17;1.30;;;;;;;;;;6276044;22;20023;-76
2023/10/30 01:16:37;;;;;;;2.22;1.50;;;;;;;;;;6276152;22;20046;-74
2023/10/30 01:19:03;;;;;;;2.72;1.40;;;;;;;;;;6276445;22;20010;-75
2023/10/30 01:21:28;;;;;;;2.10;1.50;;;;;;;;;;6276417;22;20078;-73
2023/10/30 08:08:53;;;;;;;0.80;0.80;;;;;;;;;;6235025;22;20213;-68
2023/10/30 08:11:19;;;;;;;3.85;1.02;;;;;;;;;;6276149;22;20091;-73
2023/10/30 08:13:44;;;;;;;1.75;0.90;;;;;;;;;;6250089;22;20030;-68
2023/10/30 08:16:10;;;;;;;1.08;1.00;;;;;;;;;;6276978;22;20007;-67
2023/10/30 08:18:39;;;;;;;1.65;1.27;;;;;;;;;;6277374;22;20002;-68
2023/10/30 08:21:06;;;;;;;1.67;1.27;;;;;;;;;;6277356;22;20432;-67
2023/10/30 08:23:34;;;;;;;2.25;1.15;;;;;;;;;;6277278;22;20442;-69
2023/10/30 08:26:00;;;;;;;2.03;1.20;;;;;;;;;;6277244;22;19992;-69
2023/10/30 08:28:25;;;;;;;2.08;1.30;;;;;;;;;;6277106;22;19995;-67
2023/10/30 08:30:51;;;;;;;4.60;1.40;;;;;;;;;;6277257;22;20000;-68
2023/10/30 08:33:17;;;;;;;1.30;1.20;;;;;;;;;;6277239;22;20031;-67
2023/10/30 08:35:42;;;;;;;2.60;1.05;;;;;;;;;;6277319;22;20133;-67
2023/10/30 08:38:08;;;;;;;8.88;1.33;;;;;;;;;;6277242;22;19996;-68
2023/10/30 08:40:33;;;;;;;6.13;1.50;;;;;;;;;;6276382;22;20011;-68
2023/10/30 08:42:59;;;;;;;12.65;1.65;;;;;;;;;;6277130;22;20004;-68
2023/10/30 08:45:26;;;;;;;8.25;1.48;;;;;;;;;;6277185;22;20000;-68
2023/10/30 08:47:51;;;;;;;12.75;2.33;;;;;;;;;;6277097;22;20008;-69
2023/10/30 08:50:17;;;;;;;4.78;1.10;;;;;;;;;;6276289;22;20079;-68
2023/10/30 08:52:42;;;;;;;11.25;1.40;;;;;;;;;;6277165;22;20011;-63
2023/10/30 08:55:08;;;;;;;8.05;1.38;;;;;;;;;;6277345;22;20007;-63
2023/10/30 08:57:34;;;;;;;4.85;1.88;;;;;;;;;;6249607;22;20011;-63
2023/10/30 08:59:59;;;;;;;16.10;3.00;;;;;;;;;;6274404;22;20328;-63
2023/10/30 09:02:25;;;;;;;4.28;3.35;;;;;;;;;;6276947;22;20004;-62
2023/10/30 09:04:50;;;;;;;5.35;2.85;;;;;;;;;;6276993;22;20004;-63
2023/10/30 09:07:16;;;;;;;10.02;3.00;;;;;;;;;;6276825;22;20027;-63
2023/10/30 09:09:42;;;;;;;8.32;2.65;;;;;;;;;;6276502;22;20046;-63
2023/10/30 09:12:08;;;;;;;5.55;2.50;;;;;;;;;;6276923;22;20000;-63
2023/10/30 09:14:34;;;;;;;3.50;2.20;;;;;;;;;;6277148;22;20015;-63
2023/10/30 09:16:59;;;;;;;8.43;3.30;;;;;;;;;;6277119;22;20325;-63
2023/10/30 09:19:25;;;;;;;3.33;1.70;;;;;;;;;;6276789;22;20580;-63
2023/10/30 09:21:52;;;;;;;5.28;2.00;;;;;;;;;;6276821;22;20038;-63
2023/10/30 09:24:17;;;;;;;8.82;2.58;;;;;;;;;;6276695;22;20074;-62
2023/10/30 09:26:43;;;;;;;4.75;2.42;;;;;;;;;;6276792;22;20372;-62
2023/10/30 09:29:09;;;;;;;8.25;2.38;;;;;;;;;;6276672;22;20440;-66
2023/10/30 09:31:35;;;;;;;5.45;2.70;;;;;;;;;;6277042;22;20344;-62
2023/10/30 09:34:00;;;;;;;8.10;2.60;;;;;;;;;;6276943;22;20057;-62
2023/10/30 09:36:27;;;;;;;9.15;2.60;;;;;;;;;;6276585;22;20061;-62
2023/10/30 09:38:53;;;;;;;6.15;2.55;;;;;;;;;;6276919;22;20030;-63
2023/10/30 09:41:20;;;;;;;5.20;2.72;;;;;;;;;;6276547;22;20027;-62
2023/10/30 09:43:52;;;;;;;5.57;2.30;;;;;;;;;;6276649;22;20000;-62
2023/10/30 09:46:24;;;;;;;4.85;2.60;;;;;;;;;;6276518;22;20082;-63
2023/10/30 09:48:52;;;;;;;3.83;2.28;;;;;;;;;;6276533;22;20061;-62
2023/10/30 09:51:19;;;;;;;9.13;2.30;;;;;;;;;;6249281;22;20379;-62
2023/10/30 09:53:46;;;;;;;8.02;2.80;;;;;;;;;;6276377;22;20011;-63
2023/10/30 09:56:13;;;;;;;6.90;2.85;;;;;;;;;;6276751;22;20012;-62
2023/10/30 09:58:38;;;;;;;4.00;2.10;;;;;;;;;;6276479;22;20328;-62
2023/10/30 10:01:05;;;;;;;4.03;2.40;;;;;;;;;;6276412;22;20075;-63
2023/10/30 10:03:30;;;;;;;5.47;2.50;;;;;;;;;;6276357;22;20003;-62
2023/10/30 10:05:57;;;;;;;3.25;2.30;;;;;;;;;;6276376;22;20007;-63
2023/10/30 10:08:24;;;;;;;3.75;2.45;;;;;;;;;;6276037;22;20020;-63
2023/10/30 10:11:00;;;;;;;3.17;2.35;;;;;;;;;;6276271;22;19996;-63
2023/10/30 10:13:28;;;;;;;4.53;2.30;;;;;;;;;;6276211;22;20031;-63
2023/10/30 10:15:56;;;;;;;8.00;2.72;;;;;;;;;;6276499;22;20022;-62
2023/10/30 10:18:29;;;;;;;6.20;2.50;;;;;;;;;;6276670;22;20078;-63
2023/10/30 10:21:01;;;;;;;5.93;2.35;;;;;;;;;;6276287;22;20082;-62
2023/10/30 10:23:34;;;;;;;2.60;2.20;;;;;;;;;;6276106;22;20451;-62
2023/10/30 10:26:03;;;;;;;5.85;2.53;;;;;;;;;;6276204;22;20000;-63
2023/10/30 10:28:29;;;;;;;6.95;2.50;;;;;;;;;;6276028;22;20095;-62
2023/10/30 10:30:55;;;;;;;6.88;2.53;;;;;;;;;;6276179;22;19999;-62
2023/10/30 10:33:24;;;;;;;5.75;2.30;;;;;;;;;;6276482;22;20008;-62
2023/10/30 10:36:04;;;;;;;6.13;2.50;;;;;;;;;;6275864;22;20008;-62
2023/10/30 10:38:31;;;;;;;7.10;2.95;;;;;;;;;;6276372;22;20007;-62
2023/10/30 10:40:57;;;;;;;4.88;2.58;;;;;;;;;;6276335;22;20286;-63
2023/10/30 10:43:25;;;;;;;2.88;2.28;;;;;;;;;;6276355;22;20079;-63
2023/10/30 10:45:52;;;;;;;3.92;2.60;;;;;;;;;;6275948;22;19996;-63
2023/10/30 10:48:18;;;;;;;5.88;2.42;;;;;;;;;;6276385;22;20004;-63
2023/10/30 10:50:44;;;;;;;3.42;2.15;;;;;;;;;;6276618;22;20121;-62
2023/10/30 10:53:12;;;;;;;4.47;2.50;;;;;;;;;;6275931;22;20010;-67
2023/10/30 10:55:45;;;;;;;2.63;2.42;;;;;;;;;;6275861;22;20000;-62
2023/10/30 10:58:14;;;;;;;4.45;2.75;;;;;;;;;;6275956;22;20000;-63
2023/10/30 11:00:51;;;;;;;4.13;2.50;;;;;;;;;;6275871;22;20011;-62
2023/10/30 11:03:18;;;;;;;3.92;2.25;;;;;;;;;;6276131;22;19996;-62
2023/10/30 11:05:46;;;;;;;4.15;2.42;;;;;;;;;;6275741;22;20011;-63
2023/10/30 11:08:12;;;;;;;5.88;2.13;;;;;;;;;;6275657;22;20080;-63
2023/10/30 11:10:48;;;;;;;3.75;2.15;;;;;;;;;;6275634;22;20105;-63
2023/10/30 11:13:19;;;;;;;5.82;2.13;;;;;;;;;;6275826;22;20010;-62
2023/10/30 11:15:54;;;;;;;3.88;2.50;;;;;;;;;;6275747;22;20000;-63
2023/10/30 11:18:21;;;;;;;4.25;2.25;;;;;;;;;;6275826;22;20011;-62
2023/10/30 11:21:07;;;;;;;4.38;2.20;;;;;;;;;;6275725;22;20003;-62
2023/10/30 11:23:48;;;;;;;2.75;2.30;;;;;;;;;;6275847;22;20024;-62
2023/10/30 11:26:43;;;;;;;3.58;2.28;;;;;;;;;;6276054;22;20075;-63
2023/10/30 11:29:22;;;;;;;4.35;2.28;;;;;;;;;;6275608;22;20008;-62
2023/10/30 11:32:00;;;;;;;3.78;2.30;;;;;;;;;;6248546;22;20003;-62
2023/10/30 11:34:37;;;;;;;4.20;2.30;;;;;;;;;;6275682;22;20006;-62
2023/10/30 11:37:09;;;;;;;2.35;2.15;;;;;;;;;;6275776;22;20073;-62
2023/10/30 11:39:36;;;;;;;4.38;2.42;;;;;;;;;;6275681;22;20006;-62
2023/10/30 11:42:04;;;;;;;2.60;2.30;;;;;;;;;;6276089;22;20061;-62
2023/10/30 11:44:31;;;;;;;3.33;2.03;;;;;;;;;;6275624;22;19999;-62
2023/10/30 11:46:57;;;;;;;2.63;2.33;;;;;;;;;;6276895;22;20082;-62
2023/10/30 11:49:30;;;;;;;4.95;2.13;;;;;;;;;;6277583;22;20298;-62
2023/10/30 11:51:56;;;;;;;3.17;2.20;;;;;;;;;;6277745;22;20007;-62
2023/10/30 11:54:24;;;;;;;3.90;2.20;;;;;;;;;;6277955;22;20359;-62
2023/10/30 11:56:52;;;;;;;2.60;2.20;;;;;;;;;;6277622;22;20000;-62
2023/10/30 11:59:18;;;;;;;3.35;2.33;;;;;;;;;;6277671;22;20007;-62
2023/10/30 12:01:45;;;;;;;3.47;2.42;;;;;;;;;;6277554;22;20074;-63
2023/10/30 12:04:11;;;;;;;2.10;1.90;;;;;;;;;;6277559;22;20038;-62
2023/10/30 12:06:37;;;;;;;2.50;2.30;;;;;;;;;;6277578;22;20421;-63
2023/10/30 12:09:04;;;;;;;4.68;2.08;;;;;;;;;;6277126;22;20088;-62
2023/10/30 12:11:30;;;;;;;2.30;2.10;;;;;;;;;;6277780;22;20501;-62
2023/10/30 12:13:56;;;;;;;2.83;2.05;;;;;;;;;;6277475;22;19996;-62
2023/10/30 12:16:22;;;;;;;5.15;2.38;;;;;;;;;;6277764;22;20045;-62
2023/10/30 12:18:48;;;;;;;3.15;2.17;;;;;;;;;;6277692;22;20401;-62
2023/10/30 12:21:15;;;;;;;3.88;2.20;;;;;;;;;;6277428;22;20012;-62
2023/10/30 12:23:48;;;;;;;3.58;2.15;;;;;;;;;;6277339;22;20024;-62
2023/10/30 12:26:14;;;;;;;3.65;2.40;;;;;;;;;;6277710;22;20011;-61
2023/10/30 12:28:39;;;;;;;3.95;2.30;;;;;;;;;;6277449;22;20000;-61
2023/10/30 12:31:23;;;;;;;2.75;2.30;;;;;;;;;;6277271;22;20004;-61
2023/10/30 12:34:11;;;;;;;3.90;2.20;;;;;;;;;;6277216;22;20440;-62
2023/10/30 12:36:38;;;;;;;2.28;1.90;;;;;;;;;;6277311;22;20031;-62
2023/10/30 12:39:18;;;;;;;4.40;2.30;;;;;;;;;;6277621;22;20007;-62
2023/10/30 12:41:44;;;;;;;2.17;1.92;;;;;;;;;;6277180;22;20314;-62
2023/10/30 12:44:10;;;;;;;3.35;2.00;;;;;;;;;;6277179;22;20079;-62
2023/10/30 12:46:36;;;;;;;3.72;2.30;;;;;;;;;;6277164;22;20027;-61
2023/10/30 12:49:03;;;;;;;2.90;2.08;;;;;;;;;;6277039;22;20006;-62
2023/10/30 12:51:31;;;;;;;2.67;2.03;;;;;;;;;;6277011;22;20453;-62
2023/10/30 12:53:58;;;;;;;2.53;2.33;;;;;;;;;;6277029;22;20428;-62
2023/10/30 12:56:23;;;;;;;4.45;2.00;;;;;;;;;;6277038;22;20026;-63
2023/10/30 12:58:49;;;;;;;3.30;2.63;;;;;;;;;;6276724;22;20011;-62
2023/10/30 13:01:14;;;;;;;2.75;2.20;;;;;;;;;;6277025;22;20058;-62
2023/10/30 13:03:40;;;;;;;3.33;2.33;;;;;;;;;;6276973;22;20004;-61
2023/10/30 13:06:05;;;;;;;3.72;2.10;;;;;;;;;;6276964;22;19996;-61
2023/10/30 13:08:31;;;;;;;2.22;2.03;;;;;;;;;;6276531;22;20011;-62
2023/10/30 13:10:57;;;;;;;3.40;2.10;;;;;;;;;;6276872;22;20003;-62
2023/10/30 13:13:23;;;;;;;2.85;2.38;;;;;;;;;;6276793;22;19996;-62
2023/10/30 13:15:48;;;;;;;5.03;2.30;;;;;;;;;;6276861;22;20000;-61
2023/10/30 13:18:14;;;;;;;3.45;2.15;;;;;;;;;;6276746;22;20003;-63
2023/10/30 13:20:39;;;;;;;2.15;1.90;;;;;;;;;;6277131;22;20010;-62
2023/10/30 13:23:05;;;;;;;3.88;2.20;;;;;;;;;;6276713;22;20026;-62
2023/10/30 13:25:31;;;;;;;4.35;2.00;;;;;;;;;;6276742;22;20020;-61
2023/10/30 13:27:57;;;;;;;2.13;1.92;;;;;;;;;;6276722;22;20035;-62
2023/10/30 13:30:23;;;;;;;2.50;2.03;;;;;;;;;;6276622;22;20003;-62
2023/10/30 13:32:49;;;;;;;2.45;1.90;;;;;;;;;;6276621;22;20079;-62
2023/10/30 13:35:14;;;;;;;3.17;2.10;;;;;;;;;;6276548;22;20003;-62
2023/10/30 13:37:40;;;;;;;3.25;2.25;;;;;;;;;;6276940;22;20083;-62
2023/10/30 13:40:06;;;;;;;2.42;1.95;;;;;;;;;;6276605;22;20073;-61
2023/10/30 13:42:32;;;;;;;4.10;2.85;;;;;;;;;;6276595;22;20000;-62
2023/10/30 13:44:58;;;;;;;3.42;2.03;;;;;;;;;;6276626;22;20007;-62
2023/10/30 13:47:23;;;;;;;2.67;2.20;;;;;;;;;;6276605;22;20068;-61
2023/10/30 13:49:49;;;;;;;4.03;2.03;;;;;;;;;;6276457;22;20086;-62
2023/10/30 13:52:14;;;;;;;2.60;2.00;;;;;;;;;;6276852;22;20000;-62
2023/10/30 13:54:40;;;;;;;2.63;2.05;;;;;;;;;;6276525;22;20329;-61
2023/10/30 13:57:07;;;;;;;2.28;1.98;;;;;;;;;;6276501;22;20004;-62
2023/10/30 13:59:32;;;;;;;2.47;2.20;;;;;;;;;;6276419;22;20043;-61
2023/10/30 14:01:58;;;;;;;2.25;2.05;;;;;;;;;;6276400;22;20004;-61
2023/10/30 14:04:24;;;;;;;2.42;2.15;;;;;;;;;;6276419;22;20340;-61
2023/10/30 14:06:49;;;;;;;2.10;1.90;;;;;;;;;;6276572;22;20000;-62
2023/10/30 14:09:15;;;;;;;2.92;2.53;;;;;;;;;;6275676;22;20104;-62
2023/10/30 14:11:40;;;;;;;2.55;2.13;;;;;;;;;;6276276;22;20038;-62
2023/10/30 14:14:06;;;;;;;2.70;1.90;;;;;;;;;;6276320;22;20003;-61
2023/10/30 14:16:31;;;;;;;3.30;2.03;;;;;;;;;;6276258;22;20007;-61
2023/10/30 14:18:57;;;;;;;2.15;1.95;;;;;;;;;;6276307;22;20027;-62
2023/10/30 14:21:26;;;;;;;2.50;2.30;;;;;;;;;;6276259;22;20421;-62
2023/10/30 14:23:51;;;;;;;3.15;2.00;;;;;;;;;;6276178;22;20000;-62
2023/10/30 14:26:17;;;;;;;2.42;2.08;;;;;;;;;;6276114;22;19996;-61
2023/10/30 14:28:42;;;;;;;2.40;2.20;;;;;;;;;;6276316;22;20004;-62
2023/10/30 14:31:08;;;;;;;3.10;2.10;;;;;;;;;;6276131;22;20460;-61
2023/10/30 14:33:33;;;;;;;2.80;2.00;;;;;;;;;;6276385;22;20328;-61
2023/10/30 14:35:59;;;;;;;2.10;1.90;;;;;;;;;;6276334;22;20003;-61
2023/10/30 14:38:25;;;;;;;2.58;2.00;;;;;;;;;;6276007;22;20014;-62
2023/10/30 14:40:50;;;;;;;1.77;1.67;;;;;;;;;;6276033;22;20004;-62
2023/10/30 14:43:16;;;;;;;2.85;1.92;;;;;;;;;;6276305;22;20000;-62
2023/10/30 14:45:42;;;;;;;1.88;1.77;;;;;;;;;;6276029;22;20000;-61
2023/10/30 14:48:07;;;;;;;3.03;2.20;;;;;;;;;;6275964;22;20003;-61
2023/10/30 14:50:33;;;;;;;2.30;2.10;;;;;;;;;;6275915;22;20003;-62
2023/10/30 14:52:58;;;;;;;2.78;2.00;;;;;;;;;;6275943;22;20479;-61
2023/10/30 14:55:25;;;;;;;2.50;1.83;;;;;;;;;;6275935;22;20004;-62
2023/10/30 14:57:51;;;;;;;2.90;2.20;;;;;;;;;;6275916;22;20038;-62
2023/10/30 15:00:20;;;;;;;2.30;2.10;;;;;;;;;;6275939;22;20000;-62
2023/10/30 15:02:45;;;;;;;2.72;1.83;;;;;;;;;;6275895;22;20003;-62
2023/10/30 15:05:11;;;;;;;2.20;2.00;;;;;;;;;;6275818;22;20049;-62
2023/10/30 15:07:37;;;;;;;1.90;1.80;;;;;;;;;;6275788;22;20000;-61
2023/10/30 15:10:03;;;;;;;2.50;2.00;;;;;;;;;;6245435;22;20024;-61
2023/10/30 15:12:29;;;;;;;2.75;2.22;;;;;;;;;;6245481;22;20011;-61
2023/10/30 15:14:55;;;;;;;3.00;2.03;;;;;;;;;;6245451;23;20329;-62
2023/10/30 15:17:20;;;;;;;2.35;2.15;;;;;;;;;;6245152;23;20011;-62
2023/10/30 15:19:46;;;;;;;2.05;1.85;;;;;;;;;;6245240;22;20075;-61
2023/10/30 15:22:12;;;;;;;1.90;1.80;;;;;;;;;;6245098;22;20063;-61
2023/10/30 15:24:38;;;;;;;2.17;1.80;;;;;;;;;;6245174;22;20000;-61
2023/10/30 15:27:04;;;;;;;1.90;1.77;;;;;;;;;;6245496;22;20341;-62
2023/10/30 15:29:29;;;;;;;1.70;1.60;;;;;;;;;;6245358;22;20008;-61
2023/10/30 15:31:55;;;;;;;2.35;2.15;;;;;;;;;;6245162;22;20000;-62
2023/10/30 15:34:20;;;;;;;2.13;1.92;;;;;;;;;;6245116;22;20011;-62
2023/10/30 15:36:46;;;;;;;2.22;1.85;;;;;;;;;;6245527;22;20306;-61
2023/10/30 15:39:11;;;;;;;2.00;1.80;;;;;;;;;;6245511;23;20081;-62
2023/10/30 15:41:37;;;;;;;1.70;1.60;;;;;;;;;;6245127;23;20551;-61
2023/10/30 15:44:03;;;;;;;2.13;1.70;;;;;;;;;;6245447;22;20031;-61
2023/10/30 15:46:28;;;;;;;1.90;1.80;;;;;;;;;;6245047;22;20050;-61
2023/10/30 15:48:56;;;;;;;2.38;1.90;;;;;;;;;;6245487;22;20008;-62
2023/10/30 15:51:21;;;;;;;3.38;1.98;;;;;;;;;;6245428;22;20058;-62
2023/10/30 15:53:49;;;;;;;2.30;1.77;;;;;;;;;;6245355;22;20345;-62
2023/10/30 15:56:15;;;;;;;2.03;1.80;;;;;;;;;;6245353;22;20004;-61
2023/10/30 15:58:40;;;;;;;2.15;1.92;;;;;;;;;;6244972;22;20011;-61
2023/10/30 16:01:06;;;;;;;2.45;1.88;;;;;;;;;;6245277;23;20079;-61
2023/10/30 16:03:32;;;;;;;2.55;1.65;;;;;;;;;;6244960;22;20032;-61
2023/10/30 16:05:57;;;;;;;1.90;1.77;;;;;;;;;;6244961;22;20027;-62
2023/10/30 16:08:23;;;;;;;2.53;2.00;;;;;;;;;;6254372;22;20012;-62
2023/10/30 16:10:49;;;;;;;1.85;1.58;;;;;;;;;;6248348;22;20008;-62
2023/10/30 16:13:14;;;;;;;3.35;2.15;;;;;;;;;;6275477;22;20008;-62
2023/10/30 16:15:40;;;;;;;1.92;1.75;;;;;;;;;;6275550;22;20011;-61
2023/10/30 16:18:06;;;;;;;1.85;1.75;;;;;;;;;;6275521;22;20011;-62
2023/10/30 16:20:32;;;;;;;2.88;1.90;;;;;;;;;;6275778;22;20010;-62
2023/10/30 16:22:57;;;;;;;2.05;1.85;;;;;;;;;;6275520;22;20004;-62
2023/10/30 16:25:23;;;;;;;1.90;1.80;;;;;;;;;;6275504;22;20003;-62
2023/10/30 16:27:48;;;;;;;2.17;1.88;;;;;;;;;;6275818;22;20049;-61
2023/10/30 16:30:17;;;;;;;1.90;1.80;;;;;;;;;;6275646;22;20011;-62
2023/10/30 16:32:44;;;;;;;2.78;2.08;;;;;;;;;;6248609;22;20015;-62
2023/10/30 16:35:10;;;;;;;3.08;1.90;;;;;;;;;;6277263;22;20325;-62
2023/10/30 16:37:35;;;;;;;1.92;1.83;;;;;;;;;;6277496;22;20000;-62
2023/10/30 16:40:03;;;;;;;1.77;1.67;;;;;;;;;;6277178;22;20045;-62
2023/10/30 16:42:28;;;;;;;2.00;1.70;;;;;;;;;;6277560;22;20364;-62
2023/10/30 16:44:54;;;;;;;3.88;1.90;;;;;;;;;;6277166;22;20065;-62
2023/10/30 16:47:19;;;;;;;2.10;1.90;;;;;;;;;;6277439;22;20429;-61
2023/10/30 16:49:45;;;;;;;2.13;1.92;;;;;;;;;;6276923;22;20004;-62
2023/10/30 16:52:11;;;;;;;2.10;1.77;;;;;;;;;;6250110;22;20007;-61
2023/10/30 16:54:37;;;;;;;1.98;1.77;;;;;;;;;;6277084;22;20070;-62
2023/10/30 16:57:05;;;;;;;2.00;1.80;;;;;;;;;;6277120;22;20073;-62
2023/10/30 16:59:31;;;;;;;2.00;1.80;;;;;;;;;;6276931;22;20031;-61
2023/10/30 17:01:56;;;;;;;2.15;1.95;;;;;;;;;;6277284;22;20003;-62
2023/10/30 17:04:22;;;;;;;2.28;2.00;;;;;;;;;;6249940;22;20428;-62
2023/10/30 17:06:47;;;;;;;2.10;1.90;;;;;;;;;;6276959;22;20027;-62
2023/10/30 17:09:13;;;;;;;2.28;1.80;;;;;;;;;;6276528;22;20314;-62
2023/10/30 17:11:38;;;;;;;2.75;2.22;;;;;;;;;;6276942;22;20000;-62
2023/10/30 17:14:04;;;;;;;2.00;1.80;;;;;;;;;;6276934;22;20228;-62
2023/10/30 17:16:29;;;;;;;1.98;1.80;;;;;;;;;;6276811;22;20007;-61
2023/10/30 17:18:56;;;;;;;2.10;1.90;;;;;;;;;;6276775;22;20067;-61
2023/10/30 17:21:21;;;;;;;2.25;1.90;;;;;;;;;;6276862;22;20490;-62
2023/10/30 17:23:47;;;;;;;2.30;1.80;;;;;;;;;;6277120;22;20067;-61
2023/10/30 17:26:13;;;;;;;2.25;2.00;;;;;;;;;;6276669;22;20027;-62
2023/10/30 17:28:38;;;;;;;2.00;1.80;;;;;;;;;;6277077;22;20004;-62
2023/10/30 17:31:04;;;;;;;2.20;2.00;;;;;;;;;;6276712;22;20400;-62
2023/10/30 17:33:30;;;;;;;2.20;1.90;;;;;;;;;;6276641;22;20008;-61
2023/10/30 17:35:56;;;;;;;2.05;1.90;;;;;;;;;;6276647;22;20003;-62
2023/10/30 17:38:21;;;;;;;2.55;2.05;;;;;;;;;;6276659;22;20004;-62
2023/10/30 17:40:47;;;;;;;2.15;1.95;;;;;;;;;;6276964;22;20317;-61
2023/10/30 17:43:12;;;;;;;2.25;1.80;;;;;;;;;;6277315;22;20078;-62
2023/10/30 17:45:38;;;;;;;2.40;2.08;;;;;;;;;;6276808;22;20378;-62
2023/10/30 17:48:05;;;;;;;2.10;1.90;;;;;;;;;;6276809;22;20015;-62
2023/10/30 17:50:31;;;;;;;2.00;1.77;;;;;;;;;;6276410;22;20004;-62
2023/10/30 17:52:57;;;;;;;2.50;1.95;;;;;;;;;;6276443;22;20056;-61
2023/10/30 17:55:24;;;;;;;2.15;1.85;;;;;;;;;;6276793;22;20057;-62
2023/10/30 17:57:49;;;;;;;2.15;1.83;;;;;;;;;;6276466;22;20011;-61
2023/10/30 18:00:15;;;;;;;2.10;1.90;;;;;;;;;;6276736;22;20008;-61
2023/10/30 18:02:41;;;;;;;2.15;1.95;;;;;;;;;;6276359;22;20003;-62
2023/10/30 18:05:07;;;;;;;2.65;2.10;;;;;;;;;;6276426;22;19999;-62
2023/10/30 18:07:32;;;;;;;2.35;2.03;;;;;;;;;;6276371;22;20019;-62
2023/10/30 18:09:58;;;;;;;2.00;1.85;;;;;;;;;;6276146;22;20023;-62
2023/10/30 18:12:24;;;;;;;1.83;1.73;;;;;;;;;;6276625;22;20003;-61
2023/10/30 18:14:49;;;;;;;2.10;1.90;;;;;;;;;;6276640;22;20038;-61
2023/10/30 18:17:15;;;;;;;3.60;2.13;;;;;;;;;;6276136;22;20337;-61
2023/10/30 18:19:40;;;;;;;2.47;1.80;;;;;;;;;;6276216;22;20011;-61
2023/10/30 18:22:06;;;;;;;1.80;1.70;;;;;;;;;;6276284;22;20213;-61
2023/10/30 18:24:31;;;;;;;2.08;1.88;;;;;;;;;;6276224;22;20003;-62
2023/10/30 18:26:58;;;;;;;2.22;1.90;;;;;;;;;;6276144;22;20107;-61
2023/10/30 18:29:24;;;;;;;1.80;1.70;;;;;;;;;;6276003;22;19999;-61
2023/10/30 18:31:53;;;;;;;2.42;1.70;;;;;;;;;;6276181;22;20102;-61
2023/10/30 18:34:18;;;;;;;1.70;1.60;;;;;;;;;;6276201;22;20000;-62
2023/10/30 18:36:44;;;;;;;3.47;1.90;;;;;;;;;;6249014;22;20008;-62
2023/10/30 18:39:13;;;;;;;2.08;1.88;;;;;;;;;;6276058;22;20013;-61
2023/10/30 18:41:38;;;;;;;2.70;1.65;;;;;;;;;;6276380;22;20000;-61
2023/10/30 18:44:05;;;;;;;2.85;2.05;;;;;;;;;;6275959;22;20290;-62
2023/10/30 18:46:30;;;;;;;3.10;1.88;;;;;;;;;;6248867;22;20082;-62
2023/10/30 18:48:56;;;;;;;2.17;1.98;;;;;;;;;;6275817;22;20429;-62
2023/10/30 18:51:21;;;;;;;2.17;1.98;;;;;;;;;;6275904;22;20006;-62
2023/10/30 18:53:47;;;;;;;1.95;1.85;;;;;;;;;;6275919;22;20007;-62
2023/10/30 18:56:14;;;;;;;2.10;1.90;;;;;;;;;;6275807;22;20000;-62
2023/10/30 18:58:39;;;;;;;1.90;1.80;;;;;;;;;;6275919;22;20066;-62
2023/10/30 19:01:06;;;;;;;2.38;2.08;;;;;;;;;;6275911;22;20004;-62
2023/10/30 19:03:34;;;;;;;1.88;1.77;;;;;;;;;;6276193;22;20008;-62
2023/10/30 19:06:03;;;;;;;1.92;1.80;;;;;;;;;;6275849;22;20004;-62
2023/10/30 19:08:32;;;;;;;2.00;1.77;;;;;;;;;;6275574;22;20428;-62
2023/10/30 19:10:59;;;;;;;1.95;1.85;;;;;;;;;;6276032;22;20015;-62
2023/10/30 19:13:29;;;;;;;1.95;1.85;;;;;;;;;;6275779;22;20000;-62
2023/10/30 19:16:00;;;;;;;3.13;2.15;;;;;;;;;;6276113;22;20113;-62
2023/10/30 19:18:26;;;;;;;2.58;1.77;;;;;;;;;;6275866;22;20409;-62
2023/10/30 19:20:54;;;;;;;2.25;1.92;;;;;;;;;;6276126;22;20014;-62
2023/10/30 19:23:20;;;;;;;2.50;2.10;;;;;;;;;;6275807;22;19999;-62
2023/10/30 19:25:46;;;;;;;2.00;1.80;;;;;;;;;;6275793;22;20077;-62
2023/10/30 19:28:11;;;;;;;4.18;2.05;;;;;;;;;;6276100;22;20409;-62
2023/10/30 19:30:38;;;;;;;2.10;1.90;;;;;;;;;;6275600;22;20079;-63
2023/10/30 19:33:04;;;;;;;3.22;2.08;;;;;;;;;;6275676;22;20012;-62
2023/10/30 19:35:29;;;;;;;3.00;2.20;;;;;;;;;;6275724;22;20075;-65
2023/10/30 19:37:55;;;;;;;3.63;2.30;;;;;;;;;;6244478;22;20377;-63
2023/10/30 19:40:21;;;;;;;2.25;2.03;;;;;;;;;;6272850;22;20002;-63
2023/10/30 19:42:47;;;;;;;3.55;2.38;;;;;;;;;;6275649;22;20027;-62
2023/10/30 19:45:12;;;;;;;3.33;2.40;;;;;;;;;;6275506;22;19999;-62
2023/10/30 19:47:42;;;;;;;3.25;2.20;;;;;;;;;;6275618;22;20032;-63
2023/10/30 19:50:09;;;;;;;2.58;2.05;;;;;;;;;;6275613;22;20007;-62
2023/10/30 19:52:34;;;;;;;5.00;2.22;;;;;;;;;;6275340;22;20010;-61
2023/10/30 19:55:00;;;;;;;3.78;2.33;;;;;;;;;;6275393;22;20003;-62
2023/10/30 19:57:25;;;;;;;3.75;2.38;;;;;;;;;;6275449;22;20436;-62
2023/10/30 19:59:52;;;;;;;2.85;2.47;;;;;;;;;;6275872;22;20425;-62
2023/10/30 20:02:17;;;;;;;3.63;2.45;;;;;;;;;;6248394;22;20298;-62
2023/10/30 20:04:43;;;;;;;2.60;2.30;;;;;;;;;;6275636;22;20026;-62
2023/10/30 20:07:09;;;;;;;2.55;2.35;;;;;;;;;;6275590;22;20007;-62
2023/10/30 20:09:37;;;;;;;2.80;2.60;;;;;;;;;;6276688;22;20024;-62
2023/10/30 20:12:03;;;;;;;5.47;2.83;;;;;;;;;;6277857;22;20003;-63
2023/10/30 20:14:28;;;;;;;2.58;2.38;;;;;;;;;;6277680;22;20006;-62
2023/10/30 20:16:54;;;;;;;3.08;2.13;;;;;;;;;;6277797;22;20007;-62
2023/10/30 20:19:20;;;;;;;7.53;2.80;;;;;;;;;;6277402;22;20485;-63
2023/10/30 20:21:45;;;;;;;3.53;2.67;;;;;;;;;;6277328;22;20019;-62
2023/10/30 20:24:11;;;;;;;3.92;2.88;;;;;;;;;;6277697;22;19999;-62
2023/10/30 20:26:36;;;;;;;2.90;2.58;;;;;;;;;;6277413;22;19992;-62
2023/10/30 20:29:03;;;;;;;6.50;2.70;;;;;;;;;;6277151;22;20003;-62
2023/10/30 20:31:28;;;;;;;5.75;2.90;;;;;;;;;;6277345;22;20336;-62
2023/10/30 20:33:54;;;;;;;3.33;2.55;;;;;;;;;;6277262;22;20008;-62
2023/10/30 20:36:19;;;;;;;4.68;2.72;;;;;;;;;;6277509;22;20325;-62
2023/10/30 20:38:45;;;;;;;4.25;2.78;;;;;;;;;;6277309;22;20004;-63
2023/10/30 20:41:16;;;;;;;4.03;2.65;;;;;;;;;;6277094;22;20003;-61
2023/10/30 20:43:42;;;;;;;3.95;2.55;;;;;;;;;;6277017;22;20086;-62
2023/10/30 20:46:13;;;;;;;4.65;3.00;;;;;;;;;;6277125;22;20008;-62
2023/10/30 20:48:39;;;;;;;4.10;2.83;;;;;;;;;;6277062;22;20407;-62
2023/10/30 20:51:05;;;;;;;3.28;2.47;;;;;;;;;;6277054;22;20086;-62
2023/10/30 20:53:31;;;;;;;4.75;2.80;;;;;;;;;;6277104;22;20006;-62
2023/10/30 20:55:57;;;;;;;3.38;2.80;;;;;;;;;;6276986;22;19995;-62
2023/10/30 20:58:22;;;;;;;3.55;2.83;;;;;;;;;;6277346;22;20076;-62
2023/10/30 21:00:48;;;;;;;8.95;2.95;;;;;;;;;;6277033;22;20004;-62
2023/10/30 21:03:14;;;;;;;4.18;2.90;;;;;;;;;;6277218;22;20139;-62
2023/10/30 21:05:40;;;;;;;4.07;2.70;;;;;;;;;;6276880;22;20027;-63
2023/10/30 21:08:06;;;;;;;9.80;4.75;;;;;;;;;;6276879;22;20061;-67
2023/10/30 21:10:32;;;;;;;6.28;4.22;;;;;;;;;;6276817;22;20007;-67
2023/10/30 21:12:57;;;;;;;6.97;5.05;;;;;;;;;;6249924;22;20490;-67
2023/10/30 21:15:24;;;;;;;8.77;4.47;;;;;;;;;;6276836;22;20412;-67
2023/10/30 21:17:50;;;;;;;6.93;4.50;;;;;;;;;;6276800;22;20123;-68
2023/10/30 21:20:16;;;;;;;6.40;4.07;;;;;;;;;;6276609;22;20004;-67
2023/10/30 21:22:42;;;;;;;5.68;3.92;;;;;;;;;;6276884;22;20010;-67
2023/10/30 21:25:07;;;;;;;7.07;4.65;;;;;;;;;;6276552;22;20079;-67